sensor_id;sensor_type;location;lat;lon;timestamp;P1;durP1;ratioP1;P2;durP2;ratioP2
24335;SDS011;33098;52.400;16.880;2023-04-24T00:01:34;24.60;;;14.20;;
24335;SDS011;33098;52.400;16.880;2023-04-24T00:04:03;20.30;;;14.40;;
24335;SDS011;33098;52.400;16.880;2023-04-24T00:06:30;20.20;;;13.80;;
24335;SDS011;33098;52.400;16.880;2023-04-24T00:09:00;19.10;;;13.30;;
24335;SDS011;33098;52.400;16.880;2023-04-24T00:11:27;16.80;;;13.00;;
24335;SDS011;33098;52.400;16.880;2023-04-24T00:13:55;15.60;;;12.60;;
24335;SDS011;33098;52.400;16.880;2023-04-24T00:16:23;15.80;;;12.60;;
24335;SDS011;33098;52.400;16.880;2023-04-24T00:18:50;18.70;;;13.10;;
24335;SDS011;33098;52.400;16.880;2023-04-24T00:21:20;16.20;;;12.10;;
24335;SDS011;33098;52.400;16.880;2023-04-24T00:23:48;15.60;;;12.00;;
24335;SDS011;33098;52.400;16.880;2023-04-24T00:26:14;16.20;;;11.70;;
24335;SDS011;33098;52.400;16.880;2023-04-24T00:28:45;14.70;;;10.90;;
24335;SDS011;33098;52.400;16.880;2023-04-24T00:31:14;13.40;;;9.80;;
24335;SDS011;33098;52.400;16.880;2023-04-24T00:33:41;13.50;;;10.20;;
24335;SDS011;33098;52.400;16.880;2023-04-24T00:36:08;15.90;;;10.90;;
24335;SDS011;33098;52.400;16.880;2023-04-24T00:38:36;12.60;;;10.60;;
24335;SDS011;33098;52.400;16.880;2023-04-24T00:41:03;14.90;;;10.70;;
24335;SDS011;33098;52.400;16.880;2023-04-24T00:43:30;14.80;;;10.00;;
24335;SDS011;33098;52.400;16.880;2023-04-24T00:45:57;12.30;;;10.10;;
24335;SDS011;33098;52.400;16.880;2023-04-24T00:48:26;15.20;;;10.20;;
24335;SDS011;33098;52.400;16.880;2023-04-24T00:50:52;13.10;;;10.10;;
24335;SDS011;33098;52.400;16.880;2023-04-24T00:53:19;13.00;;;10.00;;
24335;SDS011;33098;52.400;16.880;2023-04-24T00:55:47;11.40;;;9.40;;
24335;SDS011;33098;52.400;16.880;2023-04-24T00:58:16;12.70;;;10.70;;
24335;SDS011;33098;52.400;16.880;2023-04-24T01:00:46;12.90;;;10.10;;
24335;SDS011;33098;52.400;16.880;2023-04-24T01:03:14;12.40;;;9.90;;
24335;SDS011;33098;52.400;16.880;2023-04-24T01:05:41;11.90;;;9.90;;
24335;SDS011;33098;52.400;16.880;2023-04-24T01:08:08;13.30;;;10.00;;
24335;SDS011;33098;52.400;16.880;2023-04-24T01:10:36;13.80;;;10.30;;
24335;SDS011;33098;52.400;16.880;2023-04-24T01:13:05;12.80;;;10.10;;
24335;SDS011;33098;52.400;16.880;2023-04-24T01:15:35;14.30;;;9.90;;
24335;SDS011;33098;52.400;16.880;2023-04-24T01:18:02;12.90;;;10.00;;
24335;SDS011;33098;52.400;16.880;2023-04-24T01:20:30;10.90;;;9.70;;
24335;SDS011;33098;52.400;16.880;2023-04-24T01:22:58;12.20;;;9.50;;
24335;SDS011;33098;52.400;16.880;2023-04-24T01:25:27;13.40;;;10.50;;
24335;SDS011;33098;52.400;16.880;2023-04-24T01:27:58;11.20;;;9.90;;
24335;SDS011;33098;52.400;16.880;2023-04-24T01:30:26;11.50;;;10.20;;
24335;SDS011;33098;52.400;16.880;2023-04-24T01:32:53;11.10;;;9.80;;
24335;SDS011;33098;52.400;16.880;2023-04-24T01:35:24;12.20;;;10.20;;
24335;SDS011;33098;52.400;16.880;2023-04-24T01:37:53;11.30;;;9.60;;
24335;SDS011;33098;52.400;16.880;2023-04-24T01:40:20;11.20;;;10.00;;
24335;SDS011;33098;52.400;16.880;2023-04-24T01:42:48;13.10;;;10.00;;
24335;SDS011;33098;52.400;16.880;2023-04-24T01:45:15;12.80;;;10.80;;
24335;SDS011;33098;52.400;16.880;2023-04-24T01:47:42;14.40;;;10.30;;
24335;SDS011;33098;52.400;16.880;2023-04-24T01:50:14;13.80;;;11.40;;
24335;SDS011;33098;52.400;16.880;2023-04-24T01:52:40;14.90;;;11.20;;
24335;SDS011;33098;52.400;16.880;2023-04-24T01:55:10;17.20;;;11.30;;
24335;SDS011;33098;52.400;16.880;2023-04-24T01:57:38;14.90;;;11.50;;
24335;SDS011;33098;52.400;16.880;2023-04-24T02:00:06;15.00;;;10.70;;
24335;SDS011;33098;52.400;16.880;2023-04-24T02:02:41;13.30;;;11.30;;
24335;SDS011;33098;52.400;16.880;2023-04-24T02:05:08;15.50;;;12.00;;
24335;SDS011;33098;52.400;16.880;2023-04-24T02:07:38;15.50;;;12.00;;
24335;SDS011;33098;52.400;16.880;2023-04-24T02:10:06;18.00;;;12.10;;
24335;SDS011;33098;52.400;16.880;2023-04-24T02:12:36;16.40;;;11.80;;
24335;SDS011;33098;52.400;16.880;2023-04-24T02:15:06;16.20;;;11.30;;
24335;SDS011;33098;52.400;16.880;2023-04-24T02:17:34;13.10;;;10.90;;
24335;SDS011;33098;52.400;16.880;2023-04-24T02:20:05;15.00;;;11.00;;
24335;SDS011;33098;52.400;16.880;2023-04-24T02:22:33;16.30;;;11.80;;
24335;SDS011;33098;52.400;16.880;2023-04-24T02:25:03;15.50;;;10.90;;
24335;SDS011;33098;52.400;16.880;2023-04-24T02:27:31;13.00;;;10.50;;
24335;SDS011;33098;52.400;16.880;2023-04-24T02:29:58;13.10;;;10.70;;
24335;SDS011;33098;52.400;16.880;2023-04-24T02:32:25;11.90;;;10.50;;
24335;SDS011;33098;52.400;16.880;2023-04-24T02:34:52;13.20;;;11.00;;
24335;SDS011;33098;52.400;16.880;2023-04-24T02:37:18;13.90;;;11.20;;
24335;SDS011;33098;52.400;16.880;2023-04-24T02:39:45;13.20;;;11.50;;
24335;SDS011;33098;52.400;16.880;2023-04-24T02:42:12;13.50;;;11.30;;
24335;SDS011;33098;52.400;16.880;2023-04-24T02:44:39;14.80;;;11.80;;
24335;SDS011;33098;52.400;16.880;2023-04-24T02:47:08;13.60;;;11.10;;
24335;SDS011;33098;52.400;16.880;2023-04-24T02:49:35;14.30;;;11.30;;
24335;SDS011;33098;52.400;16.880;2023-04-24T02:52:02;14.60;;;10.80;;
24335;SDS011;33098;52.400;16.880;2023-04-24T02:54:29;12.30;;;10.90;;
24335;SDS011;33098;52.400;16.880;2023-04-24T02:56:57;11.60;;;10.20;;
24335;SDS011;33098;52.400;16.880;2023-04-24T02:59:23;12.10;;;10.30;;
24335;SDS011;33098;52.400;16.880;2023-04-24T03:01:51;12.70;;;9.80;;
24335;SDS011;33098;52.400;16.880;2023-04-24T03:04:18;11.30;;;10.10;;
24335;SDS011;33098;52.400;16.880;2023-04-24T03:06:49;11.20;;;10.00;;
24335;SDS011;33098;52.400;16.880;2023-04-24T03:09:22;12.60;;;9.90;;
24335;SDS011;33098;52.400;16.880;2023-04-24T03:11:51;10.90;;;9.70;;
24335;SDS011;33098;52.400;16.880;2023-04-24T03:14:18;11.70;;;10.00;;
24335;SDS011;33098;52.400;16.880;2023-04-24T03:16:47;13.10;;;9.90;;
24335;SDS011;33098;52.400;16.880;2023-04-24T03:19:15;12.20;;;9.50;;
24335;SDS011;33098;52.400;16.880;2023-04-24T03:21:50;11.00;;;9.10;;
24335;SDS011;33098;52.400;16.880;2023-04-24T03:24:17;11.50;;;9.20;;
24335;SDS011;33098;52.400;16.880;2023-04-24T03:26:44;10.70;;;8.80;;
24335;SDS011;33098;52.400;16.880;2023-04-24T03:29:37;9.90;;;8.80;;
24335;SDS011;33098;52.400;16.880;2023-04-24T03:32:04;11.40;;;8.90;;
24335;SDS011;33098;52.400;16.880;2023-04-24T03:34:31;11.10;;;9.20;;
24335;SDS011;33098;52.400;16.880;2023-04-24T03:36:58;11.00;;;8.70;;
24335;SDS011;33098;52.400;16.880;2023-04-24T03:39:25;12.00;;;9.00;;
24335;SDS011;33098;52.400;16.880;2023-04-24T03:41:55;10.00;;;8.60;;
24335;SDS011;33098;52.400;16.880;2023-04-24T03:44:28;9.80;;;8.40;;
24335;SDS011;33098;52.400;16.880;2023-04-24T03:46:55;10.40;;;8.50;;
24335;SDS011;33098;52.400;16.880;2023-04-24T03:49:24;10.90;;;8.30;;
24335;SDS011;33098;52.400;16.880;2023-04-24T03:51:52;11.50;;;8.80;;
24335;SDS011;33098;52.400;16.880;2023-04-24T03:54:23;9.20;;;8.10;;
24335;SDS011;33098;52.400;16.880;2023-04-24T03:56:51;10.60;;;8.10;;
24335;SDS011;33098;52.400;16.880;2023-04-24T03:59:18;9.70;;;8.70;;
24335;SDS011;33098;52.400;16.880;2023-04-24T04:01:49;9.80;;;8.00;;
24335;SDS011;33098;52.400;16.880;2023-04-24T04:04:17;9.90;;;8.50;;
24335;SDS011;33098;52.400;16.880;2023-04-24T04:06:44;10.30;;;8.10;;
24335;SDS011;33098;52.400;16.880;2023-04-24T04:09:20;9.50;;;8.20;;
24335;SDS011;33098;52.400;16.880;2023-04-24T04:11:47;10.10;;;8.30;;
24335;SDS011;33098;52.400;16.880;2023-04-24T04:14:14;9.70;;;8.50;;
24335;SDS011;33098;52.400;16.880;2023-04-24T04:16:43;10.00;;;8.00;;
24335;SDS011;33098;52.400;16.880;2023-04-24T04:19:10;13.10;;;8.80;;
24335;SDS011;33098;52.400;16.880;2023-04-24T04:21:39;10.20;;;8.80;;
24335;SDS011;33098;52.400;16.880;2023-04-24T04:24:12;12.00;;;8.50;;
24335;SDS011;33098;52.400;16.880;2023-04-24T04:26:43;10.40;;;9.30;;
24335;SDS011;33098;52.400;16.880;2023-04-24T04:29:18;12.30;;;9.00;;
24335;SDS011;33098;52.400;16.880;2023-04-24T04:31:45;11.80;;;9.20;;
24335;SDS011;33098;52.400;16.880;2023-04-24T04:34:13;11.70;;;8.70;;
24335;SDS011;33098;52.400;16.880;2023-04-24T04:36:41;11.80;;;9.50;;
24335;SDS011;33098;52.400;16.880;2023-04-24T04:39:50;14.30;;;9.80;;
24335;SDS011;33098;52.400;16.880;2023-04-24T04:42:20;12.80;;;10.10;;
24335;SDS011;33098;52.400;16.880;2023-04-24T04:44:47;13.20;;;10.10;;
24335;SDS011;33098;52.400;16.880;2023-04-24T04:47:22;11.30;;;10.10;;
24335;SDS011;33098;52.400;16.880;2023-04-24T04:49:50;14.40;;;10.30;;
24335;SDS011;33098;52.400;16.880;2023-04-24T04:52:23;13.40;;;10.90;;
24335;SDS011;33098;52.400;16.880;2023-04-24T04:54:56;12.40;;;10.20;;
24335;SDS011;33098;52.400;16.880;2023-04-24T04:57:25;14.20;;;11.10;;
24335;SDS011;33098;52.400;16.880;2023-04-24T04:59:54;13.10;;;10.90;;
24335;SDS011;33098;52.400;16.880;2023-04-24T05:02:31;14.20;;;11.00;;
24335;SDS011;33098;52.400;16.880;2023-04-24T05:04:58;13.30;;;11.00;;
24335;SDS011;33098;52.400;16.880;2023-04-24T05:07:25;15.50;;;11.70;;
24335;SDS011;33098;52.400;16.880;2023-04-24T05:09:55;15.90;;;11.80;;
24335;SDS011;33098;52.400;16.880;2023-04-24T05:12:22;18.90;;;12.20;;
24335;SDS011;33098;52.400;16.880;2023-04-24T05:14:51;15.50;;;11.70;;
24335;SDS011;33098;52.400;16.880;2023-04-24T05:17:22;15.50;;;12.10;;
24335;SDS011;33098;52.400;16.880;2023-04-24T05:19:50;17.50;;;11.70;;
24335;SDS011;33098;52.400;16.880;2023-04-24T05:22:19;12.80;;;11.10;;
24335;SDS011;33098;52.400;16.880;2023-04-24T05:24:51;14.60;;;11.30;;
24335;SDS011;33098;52.400;16.880;2023-04-24T05:27:44;17.60;;;11.60;;
24335;SDS011;33098;52.400;16.880;2023-04-24T05:30:16;13.20;;;11.50;;
24335;SDS011;33098;52.400;16.880;2023-04-24T05:32:50;14.30;;;11.40;;
24335;SDS011;33098;52.400;16.880;2023-04-24T05:35:18;15.10;;;11.20;;
24335;SDS011;33098;52.400;16.880;2023-04-24T05:37:45;13.60;;;10.90;;
24335;SDS011;33098;52.400;16.880;2023-04-24T05:40:17;15.10;;;11.00;;
24335;SDS011;33098;52.400;16.880;2023-04-24T05:42:49;14.20;;;11.10;;
24335;SDS011;33098;52.400;16.880;2023-04-24T05:45:19;14.10;;;11.00;;
24335;SDS011;33098;52.400;16.880;2023-04-24T05:47:49;13.30;;;11.20;;
24335;SDS011;33098;52.400;16.880;2023-04-24T05:50:19;14.10;;;10.60;;
24335;SDS011;33098;52.400;16.880;2023-04-24T05:52:48;15.30;;;11.00;;
24335;SDS011;33098;52.400;16.880;2023-04-24T05:55:25;12.80;;;9.80;;
24335;SDS011;33098;52.400;16.880;2023-04-24T05:57:52;13.20;;;10.40;;
24335;SDS011;33098;52.400;16.880;2023-04-24T06:00:20;14.60;;;10.70;;
24335;SDS011;33098;52.400;16.880;2023-04-24T06:02:56;10.70;;;9.60;;
24335;SDS011;33098;52.400;16.880;2023-04-24T06:05:28;13.00;;;10.40;;
24335;SDS011;33098;52.400;16.880;2023-04-24T06:07:55;11.60;;;9.90;;
24335;SDS011;33098;52.400;16.880;2023-04-24T06:10:24;13.70;;;10.30;;
24335;SDS011;33098;52.400;16.880;2023-04-24T06:12:52;16.00;;;10.90;;
24335;SDS011;33098;52.400;16.880;2023-04-24T06:15:19;18.40;;;11.50;;
24335;SDS011;33098;52.400;16.880;2023-04-24T06:18:01;13.20;;;10.30;;
24335;SDS011;33098;52.400;16.880;2023-04-24T06:20:31;13.50;;;9.80;;
24335;SDS011;33098;52.400;16.880;2023-04-24T06:23:04;12.70;;;10.10;;
24335;SDS011;33098;52.400;16.880;2023-04-24T06:25:38;16.30;;;10.50;;
24335;SDS011;33098;52.400;16.880;2023-04-24T06:28:08;16.80;;;9.90;;
24335;SDS011;33098;52.400;16.880;2023-04-24T06:30:35;11.70;;;9.80;;
24335;SDS011;33098;52.400;16.880;2023-04-24T06:33:04;13.70;;;10.40;;
24335;SDS011;33098;52.400;16.880;2023-04-24T06:35:34;14.40;;;10.80;;
24335;SDS011;33098;52.400;16.880;2023-04-24T06:38:02;19.40;;;10.50;;
24335;SDS011;33098;52.400;16.880;2023-04-24T06:40:34;15.90;;;9.90;;
24335;SDS011;33098;52.400;16.880;2023-04-24T06:43:02;12.50;;;9.70;;
24335;SDS011;33098;52.400;16.880;2023-04-24T06:45:32;15.90;;;10.50;;
24335;SDS011;33098;52.400;16.880;2023-04-24T06:48:00;13.10;;;10.20;;
24335;SDS011;33098;52.400;16.880;2023-04-24T06:50:28;12.50;;;9.90;;
24335;SDS011;33098;52.400;16.880;2023-04-24T06:53:03;13.00;;;9.90;;
24335;SDS011;33098;52.400;16.880;2023-04-24T06:55:31;17.50;;;10.70;;
24335;SDS011;33098;52.400;16.880;2023-04-24T06:58:02;21.30;;;10.80;;
24335;SDS011;33098;52.400;16.880;2023-04-24T07:00:32;18.70;;;10.30;;
24335;SDS011;33098;52.400;16.880;2023-04-24T07:03:00;15.40;;;10.40;;
24335;SDS011;33098;52.400;16.880;2023-04-24T07:05:28;17.60;;;11.10;;
24335;SDS011;33098;52.400;16.880;2023-04-24T07:07:59;14.30;;;10.50;;
24335;SDS011;33098;52.400;16.880;2023-04-24T07:10:29;12.60;;;11.20;;
24335;SDS011;33098;52.400;16.880;2023-04-24T07:12:57;12.40;;;10.50;;
24335;SDS011;33098;52.400;16.880;2023-04-24T07:15:24;12.40;;;10.00;;
24335;SDS011;33098;52.400;16.880;2023-04-24T07:17:51;12.60;;;10.20;;
24335;SDS011;33098;52.400;16.880;2023-04-24T07:20:21;15.60;;;10.70;;
24335;SDS011;33098;52.400;16.880;2023-04-24T07:22:58;12.20;;;10.60;;
24335;SDS011;33098;52.400;16.880;2023-04-24T07:25:26;13.50;;;10.30;;
24335;SDS011;33098;52.400;16.880;2023-04-24T07:27:54;16.00;;;10.30;;
24335;SDS011;33098;52.400;16.880;2023-04-24T07:30:24;12.70;;;10.70;;
24335;SDS011;33098;52.400;16.880;2023-04-24T07:32:51;13.10;;;10.50;;
24335;SDS011;33098;52.400;16.880;2023-04-24T07:35:22;12.60;;;10.60;;
24335;SDS011;33098;52.400;16.880;2023-04-24T07:37:50;13.70;;;10.80;;
24335;SDS011;33098;52.400;16.880;2023-04-24T07:40:17;15.90;;;11.50;;
24335;SDS011;33098;52.400;16.880;2023-04-24T07:42:45;14.20;;;11.60;;
24335;SDS011;33098;52.400;16.880;2023-04-24T07:45:15;14.40;;;11.90;;
24335;SDS011;33098;52.400;16.880;2023-04-24T07:47:44;13.90;;;11.60;;
24335;SDS011;33098;52.400;16.880;2023-04-24T07:50:12;14.90;;;11.20;;
24335;SDS011;33098;52.400;16.880;2023-04-24T07:52:41;14.30;;;11.90;;
24335;SDS011;33098;52.400;16.880;2023-04-24T07:55:08;12.90;;;11.30;;
24335;SDS011;33098;52.400;16.880;2023-04-24T07:57:36;12.40;;;10.80;;
24335;SDS011;33098;52.400;16.880;2023-04-24T08:00:04;12.50;;;10.50;;
24335;SDS011;33098;52.400;16.880;2023-04-24T08:02:39;15.20;;;10.90;;
24335;SDS011;33098;52.400;16.880;2023-04-24T08:05:11;13.90;;;10.20;;
24335;SDS011;33098;52.400;16.880;2023-04-24T08:07:38;11.10;;;9.40;;
24335;SDS011;33098;52.400;16.880;2023-04-24T08:10:07;14.60;;;9.80;;
24335;SDS011;33098;52.400;16.880;2023-04-24T08:12:36;12.00;;;10.00;;
24335;SDS011;33098;52.400;16.880;2023-04-24T08:15:04;11.90;;;9.70;;
24335;SDS011;33098;52.400;16.880;2023-04-24T08:17:35;12.40;;;10.10;;
24335;SDS011;33098;52.400;16.880;2023-04-24T08:20:03;10.50;;;9.20;;
24335;SDS011;33098;52.400;16.880;2023-04-24T08:22:32;10.90;;;9.80;;
24335;SDS011;33098;52.400;16.880;2023-04-24T08:25:00;11.90;;;9.50;;
24335;SDS011;33098;52.400;16.880;2023-04-24T08:27:29;13.60;;;9.70;;
24335;SDS011;33098;52.400;16.880;2023-04-24T08:29:57;12.90;;;9.70;;
24335;SDS011;33098;52.400;16.880;2023-04-24T08:32:27;11.90;;;9.20;;
24335;SDS011;33098;52.400;16.880;2023-04-24T08:37:23;11.90;;;9.30;;
24335;SDS011;33098;52.400;16.880;2023-04-24T08:39:50;12.90;;;9.00;;
24335;SDS011;33098;52.400;16.880;2023-04-24T08:42:24;12.80;;;9.60;;
24335;SDS011;33098;52.400;16.880;2023-04-24T08:45:00;12.30;;;9.90;;
24335;SDS011;33098;52.400;16.880;2023-04-24T08:47:30;11.40;;;9.50;;
24335;SDS011;33098;52.400;16.880;2023-04-24T08:52:30;14.80;;;10.00;;
24335;SDS011;33098;52.400;16.880;2023-04-24T08:54:57;11.50;;;10.10;;
24335;SDS011;33098;52.400;16.880;2023-04-24T08:57:29;12.90;;;10.00;;
24335;SDS011;33098;52.400;16.880;2023-04-24T09:00:00;12.10;;;10.00;;
24335;SDS011;33098;52.400;16.880;2023-04-24T09:02:34;14.40;;;9.60;;
24335;SDS011;33098;52.400;16.880;2023-04-24T09:05:01;12.00;;;9.40;;
24335;SDS011;33098;52.400;16.880;2023-04-24T09:07:30;11.90;;;8.70;;
24335;SDS011;33098;52.400;16.880;2023-04-24T09:10:03;11.50;;;9.10;;
24335;SDS011;33098;52.400;16.880;2023-04-24T09:12:32;12.10;;;9.30;;
24335;SDS011;33098;52.400;16.880;2023-04-24T09:15:03;10.50;;;9.40;;
24335;SDS011;33098;52.400;16.880;2023-04-24T09:17:31;12.50;;;9.10;;
24335;SDS011;33098;52.400;16.880;2023-04-24T09:20:03;10.10;;;8.90;;
24335;SDS011;33098;52.400;16.880;2023-04-24T09:22:32;11.70;;;9.80;;
24335;SDS011;33098;52.400;16.880;2023-04-24T09:25:04;11.20;;;9.20;;
24335;SDS011;33098;52.400;16.880;2023-04-24T09:27:33;11.50;;;9.00;;
24335;SDS011;33098;52.400;16.880;2023-04-24T09:30:02;11.90;;;9.10;;
24335;SDS011;33098;52.400;16.880;2023-04-24T09:32:30;11.00;;;8.80;;
24335;SDS011;33098;52.400;16.880;2023-04-24T09:37:43;10.20;;;8.10;;
24335;SDS011;33098;52.400;16.880;2023-04-24T09:40:18;10.00;;;7.90;;
24335;SDS011;33098;52.400;16.880;2023-04-24T09:42:53;11.10;;;8.20;;
24335;SDS011;33098;52.400;16.880;2023-04-24T09:45:34;9.90;;;7.50;;
24335;SDS011;33098;52.400;16.880;2023-04-24T09:48:08;10.30;;;7.10;;
24335;SDS011;33098;52.400;16.880;2023-04-24T09:50:39;8.50;;;7.30;;
24335;SDS011;33098;52.400;16.880;2023-04-24T09:53:06;8.70;;;7.70;;
24335;SDS011;33098;52.400;16.880;2023-04-24T09:55:39;9.10;;;7.40;;
24335;SDS011;33098;52.400;16.880;2023-04-24T09:58:25;12.30;;;8.20;;
24335;SDS011;33098;52.400;16.880;2023-04-24T10:00:54;11.40;;;8.70;;
24335;SDS011;33098;52.400;16.880;2023-04-24T10:03:24;10.50;;;9.00;;
24335;SDS011;33098;52.400;16.880;2023-04-24T10:06:03;10.30;;;8.60;;
24335;SDS011;33098;52.400;16.880;2023-04-24T10:08:41;9.20;;;8.30;;
24335;SDS011;33098;52.400;16.880;2023-04-24T10:11:09;10.50;;;7.90;;
24335;SDS011;33098;52.400;16.880;2023-04-24T10:13:38;9.00;;;7.80;;
24335;SDS011;33098;52.400;16.880;2023-04-24T10:16:10;12.70;;;7.50;;
24335;SDS011;33098;52.400;16.880;2023-04-24T10:18:40;8.80;;;7.80;;
24335;SDS011;33098;52.400;16.880;2023-04-24T10:21:07;9.10;;;7.90;;
24335;SDS011;33098;52.400;16.880;2023-04-24T10:23:36;10.80;;;8.30;;
24335;SDS011;33098;52.400;16.880;2023-04-24T10:26:03;10.50;;;8.30;;
24335;SDS011;33098;52.400;16.880;2023-04-24T10:28:31;10.10;;;8.50;;
24335;SDS011;33098;52.400;16.880;2023-04-24T10:30:59;9.30;;;8.30;;
24335;SDS011;33098;52.400;16.880;2023-04-24T10:33:27;9.70;;;8.70;;
24335;SDS011;33098;52.400;16.880;2023-04-24T10:36:02;10.50;;;8.50;;
24335;SDS011;33098;52.400;16.880;2023-04-24T10:38:30;9.80;;;8.70;;
24335;SDS011;33098;52.400;16.880;2023-04-24T10:41:10;9.30;;;8.40;;
24335;SDS011;33098;52.400;16.880;2023-04-24T10:43:46;10.60;;;8.10;;
24335;SDS011;33098;52.400;16.880;2023-04-24T10:46:22;9.80;;;8.20;;
24335;SDS011;33098;52.400;16.880;2023-04-24T10:51:22;8.30;;;7.40;;
24335;SDS011;33098;52.400;16.880;2023-04-24T10:53:54;8.90;;;7.30;;
24335;SDS011;33098;52.400;16.880;2023-04-24T10:56:26;7.40;;;6.50;;
24335;SDS011;33098;52.400;16.880;2023-04-24T10:58:55;7.80;;;5.90;;
24335;SDS011;33098;52.400;16.880;2023-04-24T11:03:59;5.60;;;5.10;;
24335;SDS011;33098;52.400;16.880;2023-04-24T11:06:35;5.70;;;4.70;;
24335;SDS011;33098;52.400;16.880;2023-04-24T11:09:12;5.50;;;5.00;;
24335;SDS011;33098;52.400;16.880;2023-04-24T11:11:47;4.50;;;4.10;;
24335;SDS011;33098;52.400;16.880;2023-04-24T11:14:15;4.80;;;4.10;;
24335;SDS011;33098;52.400;16.880;2023-04-24T11:16:50;4.40;;;3.90;;
24335;SDS011;33098;52.400;16.880;2023-04-24T11:19:22;4.40;;;4.00;;
24335;SDS011;33098;52.400;16.880;2023-04-24T11:22:00;4.60;;;4.00;;
24335;SDS011;33098;52.400;16.880;2023-04-24T11:27:16;4.60;;;4.20;;
24335;SDS011;33098;52.400;16.880;2023-04-24T11:29:48;4.60;;;3.50;;
24335;SDS011;33098;52.400;16.880;2023-04-24T11:35:20;4.50;;;3.60;;
24335;SDS011;33098;52.400;16.880;2023-04-24T11:37:54;3.40;;;3.10;;
24335;SDS011;33098;52.400;16.880;2023-04-24T11:40:30;3.70;;;3.30;;
24335;SDS011;33098;52.400;16.880;2023-04-24T11:43:06;5.90;;;3.40;;
24335;SDS011;33098;52.400;16.880;2023-04-24T11:45:35;3.30;;;3.00;;
24335;SDS011;33098;52.400;16.880;2023-04-24T11:48:04;4.70;;;2.90;;
24335;SDS011;33098;52.400;16.880;2023-04-24T11:50:38;4.80;;;3.40;;
24335;SDS011;33098;52.400;16.880;2023-04-24T11:53:11;3.90;;;2.90;;
24335;SDS011;33098;52.400;16.880;2023-04-24T11:55:41;3.80;;;3.40;;
24335;SDS011;33098;52.400;16.880;2023-04-24T11:58:08;3.60;;;3.30;;
24335;SDS011;33098;52.400;16.880;2023-04-24T12:00:38;4.30;;;3.20;;
24335;SDS011;33098;52.400;16.880;2023-04-24T12:03:08;4.00;;;3.00;;
24335;SDS011;33098;52.400;16.880;2023-04-24T12:05:38;3.00;;;2.70;;
24335;SDS011;33098;52.400;16.880;2023-04-24T12:08:08;4.10;;;2.70;;
24335;SDS011;33098;52.400;16.880;2023-04-24T12:10:36;3.20;;;2.90;;
24335;SDS011;33098;52.400;16.880;2023-04-24T12:13:05;4.00;;;3.00;;
24335;SDS011;33098;52.400;16.880;2023-04-24T12:15:39;3.10;;;2.80;;
24335;SDS011;33098;52.400;16.880;2023-04-24T12:18:11;3.20;;;2.90;;
24335;SDS011;33098;52.400;16.880;2023-04-24T12:20:40;3.90;;;2.50;;
24335;SDS011;33098;52.400;16.880;2023-04-24T12:23:07;6.40;;;2.70;;
24335;SDS011;33098;52.400;16.880;2023-04-24T12:25:43;8.70;;;3.10;;
24335;SDS011;33098;52.400;16.880;2023-04-24T12:28:22;4.20;;;2.70;;
24335;SDS011;33098;52.400;16.880;2023-04-24T12:30:52;2.90;;;2.40;;
24335;SDS011;33098;52.400;16.880;2023-04-24T12:33:24;4.00;;;2.30;;
24335;SDS011;33098;52.400;16.880;2023-04-24T12:35:52;4.20;;;3.20;;
24335;SDS011;33098;52.400;16.880;2023-04-24T12:38:21;3.00;;;2.70;;
24335;SDS011;33098;52.400;16.880;2023-04-24T12:41:24;4.20;;;2.70;;
24335;SDS011;33098;52.400;16.880;2023-04-24T12:43:52;4.30;;;3.00;;
24335;SDS011;33098;52.400;16.880;2023-04-24T12:46:21;3.40;;;3.10;;
24335;SDS011;33098;52.400;16.880;2023-04-24T12:51:30;3.70;;;3.40;;
24335;SDS011;33098;52.400;16.880;2023-04-24T12:54:00;3.70;;;3.40;;
24335;SDS011;33098;52.400;16.880;2023-04-24T12:56:29;3.80;;;3.10;;
24335;SDS011;33098;52.400;16.880;2023-04-24T12:59:00;5.50;;;3.70;;
24335;SDS011;33098;52.400;16.880;2023-04-24T13:01:28;5.80;;;3.60;;
24335;SDS011;33098;52.400;16.880;2023-04-24T13:04:02;3.80;;;3.40;;
24335;SDS011;33098;52.400;16.880;2023-04-24T13:06:32;4.30;;;3.40;;
24335;SDS011;33098;52.400;16.880;2023-04-24T13:09:00;3.40;;;3.10;;
24335;SDS011;33098;52.400;16.880;2023-04-24T13:11:27;7.00;;;3.50;;
24335;SDS011;33098;52.400;16.880;2023-04-24T13:13:59;6.00;;;3.50;;
24335;SDS011;33098;52.400;16.880;2023-04-24T13:16:26;4.10;;;3.50;;
24335;SDS011;33098;52.400;16.880;2023-04-24T13:18:59;5.90;;;3.60;;
24335;SDS011;33098;52.400;16.880;2023-04-24T13:21:27;4.30;;;3.30;;
24335;SDS011;33098;52.400;16.880;2023-04-24T13:23:58;5.20;;;3.00;;
24335;SDS011;33098;52.400;16.880;2023-04-24T13:26:25;4.10;;;2.80;;
24335;SDS011;33098;52.400;16.880;2023-04-24T13:28:57;3.30;;;2.90;;
24335;SDS011;33098;52.400;16.880;2023-04-24T13:31:25;3.60;;;2.90;;
24335;SDS011;33098;52.400;16.880;2023-04-24T13:33:59;5.20;;;2.40;;
24335;SDS011;33098;52.400;16.880;2023-04-24T13:36:30;3.00;;;2.20;;
24335;SDS011;33098;52.400;16.880;2023-04-24T13:38:58;2.80;;;1.90;;
24335;SDS011;33098;52.400;16.880;2023-04-24T13:41:32;3.00;;;1.90;;
24335;SDS011;33098;52.400;16.880;2023-04-24T13:44:04;3.80;;;1.60;;
24335;SDS011;33098;52.400;16.880;2023-04-24T13:46:37;2.40;;;1.80;;
24335;SDS011;33098;52.400;16.880;2023-04-24T13:49:07;3.00;;;1.80;;
24335;SDS011;33098;52.400;16.880;2023-04-24T13:51:35;4.30;;;2.20;;
24335;SDS011;33098;52.400;16.880;2023-04-24T13:54:04;3.20;;;1.80;;
24335;SDS011;33098;52.400;16.880;2023-04-24T13:56:31;1.80;;;1.30;;
24335;SDS011;33098;52.400;16.880;2023-04-24T13:59:00;3.10;;;1.60;;
24335;SDS011;33098;52.400;16.880;2023-04-24T14:01:34;3.00;;;1.50;;
24335;SDS011;33098;52.400;16.880;2023-04-24T14:04:10;2.80;;;1.40;;
24335;SDS011;33098;52.400;16.880;2023-04-24T14:06:37;3.30;;;1.60;;
24335;SDS011;33098;52.400;16.880;2023-04-24T14:09:08;3.10;;;1.60;;
24335;SDS011;33098;52.400;16.880;2023-04-24T14:11:43;5.70;;;1.60;;
24335;SDS011;33098;52.400;16.880;2023-04-24T14:14:10;2.30;;;1.50;;
24335;SDS011;33098;52.400;16.880;2023-04-24T14:16:39;5.70;;;1.80;;
24335;SDS011;33098;52.400;16.880;2023-04-24T14:19:08;1.60;;;1.20;;
24335;SDS011;33098;52.400;16.880;2023-04-24T14:21:35;3.70;;;1.20;;
24335;SDS011;33098;52.400;16.880;2023-04-24T14:24:06;2.60;;;1.40;;
24335;SDS011;33098;52.400;16.880;2023-04-24T14:26:39;2.70;;;1.50;;
24335;SDS011;33098;52.400;16.880;2023-04-24T14:29:07;2.80;;;1.30;;
24335;SDS011;33098;52.400;16.880;2023-04-24T14:31:38;2.70;;;1.20;;
24335;SDS011;33098;52.400;16.880;2023-04-24T14:34:09;3.40;;;1.20;;
24335;SDS011;33098;52.400;16.880;2023-04-24T14:36:41;1.50;;;1.00;;
24335;SDS011;33098;52.400;16.880;2023-04-24T14:39:08;1.30;;;1.10;;
24335;SDS011;33098;52.400;16.880;2023-04-24T14:41:37;1.20;;;1.00;;
24335;SDS011;33098;52.400;16.880;2023-04-24T14:44:13;1.30;;;1.10;;
24335;SDS011;33098;52.400;16.880;2023-04-24T14:46:43;2.70;;;1.30;;
24335;SDS011;33098;52.400;16.880;2023-04-24T14:49:14;2.70;;;1.40;;
24335;SDS011;33098;52.400;16.880;2023-04-24T14:51:44;2.90;;;1.50;;
24335;SDS011;33098;52.400;16.880;2023-04-24T14:54:13;2.50;;;1.50;;
24335;SDS011;33098;52.400;16.880;2023-04-24T14:56:45;4.00;;;1.80;;
24335;SDS011;33098;52.400;16.880;2023-04-24T14:59:12;2.10;;;1.70;;